createdAt,value
2022-09-05T00:01:27.993Z,6.67
2022-09-05T00:04:25.260Z,6.20
2022-09-05T00:07:00.033Z,6.87
2022-09-05T00:09:46.901Z,6.50
2022-09-05T00:12:15.879Z,7.27
2022-09-05T00:15:16.423Z,7.57
2022-09-05T00:22:42.381Z,7.13
2022-09-05T00:36:37.909Z,7.70
2022-09-05T00:39:13.290Z,7.70
2022-09-05T00:41:43.374Z,6.97
2022-09-05T00:44:15.141Z,6.90
2022-09-05T00:46:48.766Z,7.73
2022-09-05T00:49:22.713Z,7.50
2022-09-05T00:51:59.931Z,7.70
2022-09-05T00:54:55.715Z,7.77
2022-09-05T00:57:45.659Z,8.27
2022-09-05T01:00:18.256Z,7.40
2022-09-05T01:03:10.084Z,7.57
2022-09-05T01:06:00.075Z,7.50
2022-09-05T01:09:07.541Z,7.73
2022-09-05T01:11:49.492Z,7.43
2022-09-05T01:14:38.493Z,8.10
2022-09-05T01:17:18.841Z,7.67
2022-09-05T01:20:20.157Z,7.83
2022-09-05T01:23:13.301Z,7.60
2022-09-05T01:26:17.105Z,7.27
2022-09-05T01:29:17.930Z,7.60
2022-09-05T01:32:09.735Z,7.20
2022-09-05T01:34:55.813Z,7.30
2022-09-05T01:37:33.527Z,7.13
2022-09-05T01:40:17.475Z,7.80
2022-09-05T01:42:58.595Z,7.97
2022-09-05T01:45:42.138Z,7.90
2022-09-05T01:48:23.706Z,8.27
2022-09-05T01:51:05.288Z,8.13
2022-09-05T01:53:57.798Z,7.83
2022-09-05T01:56:41.290Z,8.50
2022-09-05T01:59:22.052Z,8.00
2022-09-05T02:02:07.600Z,8.13
2022-09-05T02:05:10.753Z,8.30
2022-09-05T02:08:05.617Z,8.43
2022-09-05T02:11:03.316Z,7.63
2022-09-05T02:14:03.552Z,8.03
2022-09-05T02:16:44.626Z,7.63
2022-09-05T02:19:20.895Z,7.53
2022-09-05T02:21:59.464Z,7.23
2022-09-05T02:24:35.674Z,8.00
2022-09-05T02:27:43.613Z,7.77
2022-09-05T02:30:16.858Z,7.60
2022-09-05T02:33:12.532Z,7.37
2022-09-05T02:35:51.621Z,7.10
2022-09-05T02:40:53.535Z,7.07
2022-09-05T02:45:10.273Z,7.47
2022-09-05T02:45:17.102Z,7.80
2022-09-05T02:47:18.853Z,6.60
2022-09-05T02:54:14.220Z,7.07
2022-09-05T02:57:27.633Z,6.97
2022-09-05T02:57:35.594Z,7.00
2022-09-05T02:59:09.558Z,7.00
2022-09-05T03:01:56.989Z,7.33
2022-09-05T03:04:35.114Z,7.40
2022-09-05T03:07:13.944Z,6.50
2022-09-05T03:10:01.746Z,7.87
2022-09-05T03:13:07.441Z,7.27
2022-09-05T03:16:17.880Z,7.27
2022-09-05T03:19:46.970Z,8.23
2022-09-05T03:22:58.752Z,10.20
2022-09-05T03:25:59.562Z,8.73
2022-09-05T03:29:15.942Z,8.00
2022-09-05T03:32:19.317Z,7.93
2022-09-05T03:35:20.505Z,8.83
2022-09-05T03:38:17.751Z,8.23
2022-09-05T03:41:12.115Z,8.77
2022-09-05T03:43:59.770Z,8.87
2022-09-05T03:46:54.880Z,8.33
2022-09-05T03:55:18.594Z,9.60
2022-09-05T03:57:14.717Z,8.30
2022-09-05T03:57:28.500Z,9.30
2022-09-05T03:59:03.262Z,11.23
2022-09-05T04:03:00.053Z,9.50
2022-09-05T04:08:18.067Z,9.43
2022-09-05T04:08:26.185Z,9.63
2022-09-05T04:10:31.037Z,9.70
2022-09-05T04:13:04.583Z,10.20
2022-09-05T04:15:39.856Z,9.97
2022-09-05T04:18:28.035Z,11.87
2022-09-05T04:21:06.574Z,11.73
2022-09-05T04:23:47.067Z,10.30
2022-09-05T04:26:43.730Z,10.67
2022-09-05T04:29:19.593Z,11.23
2022-09-05T04:32:18.396Z,11.40
2022-09-05T04:35:11.944Z,10.77
2022-09-05T04:37:49.370Z,12.13
2022-09-05T04:40:41.348Z,11.17
2022-09-05T04:43:15.220Z,10.37
2022-09-05T04:45:48.320Z,10.50
2022-09-05T04:48:23.557Z,12.33
2022-09-05T04:51:04.201Z,11.27
2022-09-05T04:54:02.448Z,11.70
2022-09-05T04:56:36.424Z,11.20
2022-09-05T05:01:34.592Z,13.00
2022-09-05T05:06:01.926Z,12.37
2022-09-05T05:06:09.938Z,12.70
2022-09-05T05:07:57.830Z,11.33
2022-09-05T05:15:04.364Z,11.10
2022-09-05T05:18:03.084Z,11.67
2022-09-05T05:18:07.789Z,10.93
2022-09-05T05:19:21.964Z,11.90
2022-09-05T05:21:55.549Z,12.27
2022-09-05T05:24:28.895Z,11.63
2022-09-05T05:27:05.402Z,12.03
2022-09-05T05:29:43.448Z,11.93
2022-09-05T05:32:31.690Z,11.47
2022-09-05T05:35:11.616Z,12.20
2022-09-05T05:37:46.771Z,11.60
2022-09-05T05:40:25.764Z,11.60
2022-09-05T05:43:15.675Z,11.40
2022-09-05T05:45:44.738Z,10.43
2022-09-05T05:48:31.895Z,14.07
2022-09-05T05:51:34.510Z,12.07
2022-09-05T05:54:19.150Z,10.37
2022-09-05T05:57:10.139Z,11.23
2022-09-05T06:00:01.512Z,16.77
2022-09-05T06:03:25.926Z,17.77
2022-09-05T06:06:24.130Z,16.00
2022-09-05T06:14:50.772Z,20.27
2022-09-05T06:15:02.503Z,20.50
2022-09-05T06:16:33.396Z,16.63
2022-09-05T06:19:54.545Z,15.93
2022-09-05T06:23:28.799Z,23.50
2022-09-05T06:26:49.446Z,22.13
2022-09-05T06:29:34.268Z,23.37
2022-09-05T06:32:17.706Z,19.30
2022-09-05T06:35:10.970Z,25.33
2022-09-05T06:37:46.824Z,20.57
2022-09-05T06:40:22.967Z,24.37
2022-09-05T06:43:06.131Z,27.17
2022-09-05T06:45:58.542Z,18.40
2022-09-05T06:48:46.116Z,22.60
2022-09-05T06:52:09.755Z,18.73
2022-09-05T06:55:28.227Z,20.87
2022-09-05T06:58:34.063Z,20.70
2022-09-05T07:01:08.768Z,13.10
2022-09-05T07:03:56.275Z,17.80
2022-09-05T07:06:52.364Z,16.10
2022-09-05T07:09:28.701Z,15.43
2022-09-05T07:12:09.755Z,19.50
2022-09-05T07:14:49.859Z,18.07
2022-09-05T07:17:27.664Z,13.83
2022-09-05T07:20:00.260Z,8.87
2022-09-05T07:22:47.010Z,11.67
2022-09-05T07:25:20.057Z,10.40
2022-09-05T07:28:26.277Z,6.83
2022-09-05T07:30:52.503Z,7.37
2022-09-05T07:33:22.648Z,6.33
2022-09-05T07:35:53.047Z,6.47
2022-09-05T07:38:43.515Z,3.73
2022-09-05T07:41:22.203Z,3.17
2022-09-05T07:43:55.805Z,3.22
2022-09-05T07:46:29.024Z,5.88
2022-09-05T07:49:03.225Z,3.30
2022-09-05T07:56:49.005Z,4.40
2022-09-05T07:56:49.331Z,5.13
2022-09-05T07:57:30.749Z,6.80
2022-09-05T08:00:23.110Z,3.47
2022-09-05T08:02:59.117Z,4.88
2022-09-05T08:05:35.234Z,3.10
2022-09-05T08:08:09.994Z,4.30
2022-09-05T08:11:22.103Z,5.90
2022-09-05T08:14:40.656Z,8.70
2022-09-05T08:16:48.725Z,4.15
2022-09-05T08:19:42.873Z,4.68
2022-09-05T08:22:17.478Z,8.05
2022-09-05T08:24:55.253Z,5.03
2022-09-05T08:27:27.194Z,3.30
2022-09-05T08:30:26.130Z,5.72
2022-09-05T08:33:10.972Z,4.70
2022-09-05T08:35:45.566Z,12.02
2022-09-05T08:38:15.734Z,5.05
2022-09-05T08:40:53.211Z,4.30
2022-09-05T08:46:35.145Z,2.90
2022-09-05T08:46:40.605Z,5.35
2022-09-05T08:49:46.388Z,3.28
2022-09-05T08:52:53.027Z,6.10
2022-09-05T08:55:33.815Z,3.75
2022-09-05T08:58:39.675Z,4.65
2022-09-05T09:01:17.377Z,6.03
2022-09-05T09:04:11.672Z,5.97
2022-09-05T09:07:43.712Z,23.67
2022-09-05T09:10:04.327Z,11.18
2022-09-05T09:13:06.934Z,8.90
2022-09-05T09:15:39.877Z,8.93
2022-09-05T09:18:15.427Z,5.35
2022-09-05T09:20:55.845Z,5.25
2022-09-05T09:23:46.235Z,5.53
2022-09-05T09:26:17.278Z,3.80
2022-09-05T09:28:51.994Z,3.95
2022-09-05T09:31:36.723Z,12.43
2022-09-05T09:34:38.317Z,5.20
2022-09-05T09:37:51.875Z,9.30
2022-09-05T09:40:40.452Z,4.47
2022-09-05T09:43:27.619Z,5.50
2022-09-05T09:46:11.816Z,5.40
2022-09-05T09:49:10.706Z,13.35
2022-09-05T09:52:37.958Z,5.03
2022-09-05T09:55:47.385Z,6.38
2022-09-05T09:58:49.607Z,3.47
2022-09-05T10:01:36.654Z,8.02
2022-09-05T10:10:34.141Z,8.73
2022-09-05T10:11:09.669Z,5.55
2022-09-05T10:11:49.937Z,2.70
2022-09-05T10:14:50.692Z,6.93
2022-09-05T10:17:59.898Z,6.60
2022-09-05T10:21:16.107Z,4.18
2022-09-05T10:24:23.235Z,8.00
2022-09-05T10:27:14.954Z,4.70
2022-09-05T10:29:47.456Z,2.42
2022-09-05T10:34:39.465Z,3.35
2022-09-05T10:35:27.589Z,2.85
2022-09-05T10:38:04.367Z,2.22
2022-09-05T10:41:19.891Z,3.30
2022-09-05T10:43:34.750Z,6.53
2022-09-05T10:46:20.126Z,4.50
2022-09-05T10:49:08.697Z,1.50
2022-09-05T10:51:52.040Z,1.83
2022-09-05T10:54:35.773Z,3.33
2022-09-05T10:57:16.163Z,4.15
2022-09-05T11:02:23.406Z,2.28
2022-09-05T11:02:59.209Z,1.85
2022-09-05T11:05:29.520Z,2.97
2022-09-05T11:08:08.108Z,4.50
2022-09-05T11:10:39.054Z,4.10
2022-09-05T11:13:26.565Z,1.30
2022-09-05T11:16:12.711Z,1.88
2022-09-05T11:19:04.063Z,3.38
2022-09-05T11:21:49.722Z,1.30
2022-09-05T11:24:35.237Z,2.38
2022-09-05T11:27:25.418Z,2.47
2022-09-05T11:29:57.806Z,1.67
2022-09-05T11:39:49.224Z,2.53
2022-09-05T11:39:50.383Z,2.55
2022-09-05T11:40:09.796Z,1.83
2022-09-05T11:42:33.625Z,2.03
2022-09-05T11:45:22.717Z,3.13
2022-09-05T11:48:23.749Z,3.50
2022-09-05T11:51:40.386Z,2.35
2022-09-05T11:54:44.222Z,4.68
2022-09-05T11:57:43.057Z,5.50
2022-09-05T12:00:33.000Z,2.35
2022-09-05T12:03:57.275Z,4.78
2022-09-05T12:06:49.749Z,2.85
2022-09-05T12:09:28.321Z,4.38
2022-09-05T12:12:27.036Z,1.88
2022-09-05T12:15:25.790Z,1.90
2022-09-05T12:18:19.276Z,1.63
2022-09-05T12:20:57.638Z,2.05
2022-09-05T12:23:53.851Z,1.40
2022-09-05T12:27:42.551Z,2.53
2022-09-05T12:29:29.662Z,1.17
2022-09-05T12:34:08.424Z,1.20
2022-09-05T12:36:13.159Z,2.25
2022-09-05T12:40:52.964Z,2.80
2022-09-05T12:41:36.535Z,1.58
2022-09-05T12:44:41.974Z,4.75
2022-09-05T12:47:18.686Z,2.05
2022-09-05T12:50:03.358Z,1.38
2022-09-05T12:52:46.721Z,2.03
2022-09-05T12:55:28.352Z,2.30
2022-09-05T13:02:57.295Z,3.28
2022-09-05T13:03:13.741Z,2.35
2022-09-05T13:04:16.852Z,2.38
2022-09-05T13:06:46.797Z,2.92
2022-09-05T13:09:22.764Z,2.22
2022-09-05T13:14:48.004Z,1.73
2022-09-05T13:15:20.031Z,1.58
2022-09-05T13:17:55.636Z,2.35
2022-09-05T13:20:32.697Z,2.40
2022-09-05T13:23:09.019Z,1.50
2022-09-05T13:25:38.446Z,1.73
2022-09-05T13:28:11.070Z,3.03
2022-09-05T13:35:25.126Z,4.50
2022-09-05T13:37:58.606Z,4.85
2022-09-05T13:38:12.702Z,3.95
2022-09-05T13:39:41.138Z,2.55
2022-09-05T13:42:18.333Z,2.42
2022-09-05T13:44:49.246Z,4.72
2022-09-05T13:47:34.786Z,1.98
2022-09-05T13:50:20.868Z,7.22
2022-09-05T13:52:55.652Z,1.17
2022-09-05T13:55:43.002Z,2.95
2022-09-05T13:58:17.612Z,1.50
2022-09-05T14:01:27.807Z,5.57
2022-09-05T14:07:44.502Z,5.28
2022-09-05T14:10:37.520Z,1.15
2022-09-05T14:13:11.925Z,2.22
2022-09-05T14:15:52.058Z,1.58
2022-09-05T14:18:24.544Z,2.30
2022-09-05T14:21:17.358Z,3.50
2022-09-05T14:23:56.160Z,2.05
2022-09-05T14:26:34.519Z,5.97
2022-09-05T14:29:17.538Z,1.33
2022-09-05T14:37:50.763Z,7.13
2022-09-05T14:37:55.079Z,5.22
2022-09-05T14:38:09.171Z,6.57
2022-09-05T14:41:20.251Z,2.05
2022-09-05T14:44:37.826Z,4.72
2022-09-05T14:47:35.285Z,8.55
2022-09-05T14:50:49.528Z,2.45
2022-09-05T14:57:27.241Z,1.65
2022-09-05T15:02:42.570Z,2.00
2022-09-05T15:02:51.984Z,1.60
2022-09-05T15:05:21.620Z,3.83
2022-09-05T15:07:51.459Z,1.80
2022-09-05T15:12:20.852Z,2.15
2022-09-05T15:13:25.655Z,3.03
2022-09-05T15:16:02.207Z,3.72
2022-09-05T15:18:35.378Z,2.90
2022-09-05T15:21:33.476Z,1.70
2022-09-05T15:24:13.473Z,1.67
2022-09-05T15:26:52.773Z,1.33
2022-09-05T15:29:24.848Z,2.22
2022-09-05T15:32:09.889Z,1.65
2022-09-05T15:34:39.314Z,2.85
2022-09-05T15:37:26.994Z,3.17
2022-09-05T15:40:22.628Z,1.48
2022-09-05T15:42:55.692Z,2.55
2022-09-05T15:45:28.493Z,2.17
2022-09-05T15:48:16.778Z,1.77
2022-09-05T15:50:51.473Z,4.57
2022-09-05T15:53:26.205Z,2.35
2022-09-05T15:56:00.120Z,1.83
2022-09-05T15:58:52.799Z,1.65
2022-09-05T16:01:43.437Z,1.30
2022-09-05T16:08:35.444Z,1.98
2022-09-05T16:10:38.771Z,2.70
2022-09-05T16:10:41.557Z,1.17
2022-09-05T16:12:52.529Z,2.78
2022-09-05T16:19:04.898Z,2.20
2022-09-05T16:23:15.774Z,1.50
2022-09-05T16:23:25.847Z,2.05
2022-09-05T16:24:06.325Z,2.75
2022-09-05T16:26:43.394Z,1.30
2022-09-05T16:29:26.223Z,2.03
2022-09-05T16:32:23.169Z,2.40
2022-09-05T16:34:56.393Z,1.92
2022-09-05T16:37:34.268Z,1.73
2022-09-05T16:40:13.380Z,3.72
2022-09-05T16:42:49.100Z,2.50
2022-09-05T16:45:27.552Z,1.88
2022-09-05T16:48:06.070Z,1.60
2022-09-05T16:50:40.964Z,3.45
2022-09-05T16:53:31.082Z,1.98
2022-09-05T16:56:05.701Z,2.03
2022-09-05T16:58:40.267Z,2.58
2022-09-05T17:01:41.650Z,1.75
2022-09-05T17:04:18.144Z,1.83
2022-09-05T17:06:56.957Z,2.42
2022-09-05T17:09:27.131Z,1.92
2022-09-05T17:12:02.184Z,2.38
2022-09-05T17:14:37.113Z,2.80
2022-09-05T17:17:43.879Z,2.55
2022-09-05T17:20:14.737Z,2.45
2022-09-05T17:29:17.526Z,2.90
2022-09-05T17:29:33.608Z,2.95
2022-09-05T17:29:36.093Z,2.30
2022-09-05T17:31:59.208Z,2.08
2022-09-05T17:34:54.296Z,3.28
2022-09-05T17:38:10.247Z,2.97
2022-09-05T17:41:11.638Z,1.83
2022-09-05T17:43:42.323Z,3.88
2022-09-05T17:46:22.514Z,2.28
2022-09-05T17:49:17.619Z,5.00
2022-09-05T17:52:21.586Z,1.88
2022-09-05T17:54:52.702Z,3.00
2022-09-05T17:57:39.462Z,2.45
2022-09-05T18:00:45.750Z,3.08
2022-09-05T18:04:14.565Z,3.83
2022-09-05T18:07:00.298Z,3.08
2022-09-05T18:10:12.334Z,3.42
2022-09-05T18:13:13.383Z,2.72
2022-09-05T18:16:11.039Z,3.05
2022-09-05T18:19:28.967Z,2.38
2022-09-05T18:21:50.146Z,2.22
2022-09-05T18:24:32.736Z,3.15
2022-09-05T18:27:35.058Z,2.85
2022-09-05T18:30:12.518Z,3.08
2022-09-05T18:32:48.041Z,2.50
2022-09-05T18:35:37.379Z,1.95
2022-09-05T18:38:34.439Z,1.75
2022-09-05T18:41:21.742Z,1.80
2022-09-05T18:44:14.120Z,2.25
2022-09-05T18:46:51.472Z,2.30
2022-09-05T18:50:24.078Z,4.10
2022-09-05T18:52:23.327Z,2.28
2022-09-05T18:56:10.528Z,2.47
2022-09-05T18:57:51.551Z,2.78
2022-09-05T19:00:44.678Z,3.17
2022-09-05T19:03:19.038Z,2.33
2022-09-05T19:05:55.177Z,3.53
2022-09-05T19:08:29.228Z,4.05
2022-09-05T19:11:27.705Z,3.45
2022-09-05T19:14:12.840Z,3.63
2022-09-05T19:16:47.614Z,2.92
2022-09-05T19:19:18.719Z,2.92
2022-09-05T19:22:02.441Z,2.92
2022-09-05T19:24:45.318Z,2.67
2022-09-05T19:28:53.438Z,5.80
2022-09-05T19:37:03.785Z,2.17
2022-09-05T19:37:05.306Z,3.03
2022-09-05T19:37:14.808Z,3.83
2022-09-05T19:41:24.343Z,3.58
2022-09-05T19:47:41.043Z,2.58
2022-09-05T19:47:50.920Z,2.65
2022-09-05T19:50:23.277Z,4.72
2022-09-05T19:52:54.561Z,3.72
2022-09-05T19:55:26.234Z,5.03
2022-09-05T19:58:18.845Z,5.13
2022-09-05T20:01:00.848Z,4.43
2022-09-05T20:03:38.739Z,3.15
2022-09-05T20:06:26.646Z,4.78
2022-09-05T20:09:10.805Z,3.13
2022-09-05T20:11:45.567Z,3.42
2022-09-05T20:14:21.592Z,2.65
2022-09-05T20:16:50.568Z,3.83
2022-09-05T20:19:33.513Z,3.33
2022-09-05T20:22:21.232Z,3.20
2022-09-05T20:24:54.344Z,3.90
2022-09-05T20:27:28.131Z,4.53
2022-09-05T20:30:03.311Z,3.80
2022-09-05T20:32:39.428Z,4.25
2022-09-05T20:37:12.845Z,4.68
2022-09-05T20:43:20.808Z,2.78
2022-09-05T20:43:23.029Z,3.25
2022-09-05T20:43:58.126Z,5.07
2022-09-05T20:51:09.271Z,4.47
2022-09-05T20:54:16.040Z,5.70
2022-09-05T20:54:20.750Z,3.70
2022-09-05T20:55:41.252Z,2.70
2022-09-05T20:58:17.018Z,3.13
2022-09-05T21:01:19.829Z,2.65
2022-09-05T21:03:45.323Z,2.42
2022-09-05T21:06:22.835Z,3.47
2022-09-05T21:08:55.608Z,4.15
2022-09-05T21:11:32.087Z,2.92
2022-09-05T21:14:04.937Z,2.63
2022-09-05T21:16:36.903Z,5.22
2022-09-05T21:19:06.008Z,3.38
2022-09-05T21:21:36.421Z,3.08
2022-09-05T21:24:17.614Z,3.13
2022-09-05T21:26:50.206Z,2.78
2022-09-05T21:29:32.843Z,2.78
2022-09-05T21:32:10.389Z,2.88
2022-09-05T21:34:44.811Z,2.67
2022-09-05T21:37:16.355Z,3.10
2022-09-05T21:39:59.528Z,3.95
2022-09-05T21:46:34.359Z,2.50
2022-09-05T21:47:46.459Z,4.50
2022-09-05T21:48:15.622Z,4.15
2022-09-05T21:50:47.111Z,3.45
2022-09-05T21:56:41.568Z,3.33
2022-09-05T21:59:24.478Z,4.70
2022-09-05T21:59:25.433Z,3.20
2022-09-05T22:01:59.286Z,3.85
2022-09-05T22:04:28.464Z,3.17
2022-09-05T22:06:59.359Z,3.45
2022-09-05T22:09:27.829Z,3.20
2022-09-05T22:11:57.719Z,4.05
2022-09-05T22:14:26.773Z,5.47
2022-09-05T22:16:58.919Z,2.78
2022-09-05T22:19:36.943Z,3.63
2022-09-05T22:22:16.269Z,3.63
2022-09-05T22:24:49.588Z,3.97
2022-09-05T22:27:21.108Z,2.38
2022-09-05T22:29:51.065Z,4.15
2022-09-05T22:32:26.631Z,2.40
2022-09-05T22:35:27.449Z,2.70
2022-09-05T22:38:01.721Z,2.90
2022-09-05T22:40:31.819Z,3.53
2022-09-05T22:43:03.869Z,2.80
2022-09-05T22:45:33.672Z,2.33
2022-09-05T22:48:09.289Z,3.13
2022-09-05T22:50:38.276Z,4.63
2022-09-05T22:53:08.669Z,3.35
2022-09-05T22:55:38.779Z,4.50
2022-09-05T22:58:10.213Z,3.97
2022-09-05T23:00:39.135Z,2.45
2022-09-05T23:03:08.561Z,2.40
2022-09-05T23:05:37.141Z,2.92
2022-09-05T23:08:06.950Z,3.92
2022-09-05T23:10:36.996Z,3.85
2022-09-05T23:13:08.989Z,3.83
2022-09-05T23:15:38.465Z,3.88
2022-09-05T23:18:07.823Z,3.35
2022-09-05T23:20:36.897Z,2.10
2022-09-05T23:23:06.873Z,3.72
2022-09-05T23:25:36.585Z,2.97
2022-09-05T23:28:10.848Z,3.65
2022-09-05T23:30:40.466Z,3.72
2022-09-05T23:33:11.022Z,3.30
2022-09-05T23:35:40.229Z,4.43
2022-09-05T23:38:11.914Z,3.17
2022-09-05T23:40:41.194Z,2.85
2022-09-05T23:43:11.159Z,4.00
2022-09-05T23:45:39.647Z,3.05
2022-09-05T23:48:10.274Z,3.58
2022-09-05T23:50:40.138Z,3.53
2022-09-05T23:53:09.468Z,3.92
2022-09-05T23:55:42.115Z,3.40
2022-09-05T23:58:13.038Z,5.40
